Time;durP1;ratioP1;P1;durP2;ratioP2;P2;SDS_P1;SDS_P2;PMS_P1;PMS_P2;Temp;Humidity;BMP_temperature;BMP_pressure;BME280_temperature;BME280_humidity;BME280_pressure;Samples;Min_cycle;Max_cycle;Signal;HPM_P1;HPM_P2
2021/11/02 00:00:39;;;;;;;1.97;1.87;;;;;;;8.02;100.00;95396.94;5110245;28;20264;-65
2021/11/02 00:03:06;;;;;;;3.80;1.70;;;;;;;7.93;100.00;95399.16;5092855;28;20235;-64
2021/11/02 00:05:33;;;;;;;3.03;2.10;;;;;;;7.96;100.00;95390.06;5092741;28;20201;-64
2021/11/02 00:07:59;;;;;;;3.90;1.93;;;;;;;7.88;100.00;95386.84;5092187;28;20248;-65
2021/11/02 00:10:24;;;;;;;2.53;2.03;;;;;;;7.90;100.00;95391.84;5093180;28;20585;-64
2021/11/02 00:12:50;;;;;;;1.70;1.60;;;;;;;8.04;100.00;95389.63;5112451;28;20187;-64
2021/11/02 00:15:21;;;;;;;2.00;1.90;;;;;;;8.03;100.00;95390.66;5112784;28;20180;-64
2021/11/02 00:17:50;;;;;;;2.03;1.87;;;;;;;8.09;100.00;95394.91;5111655;28;20179;-64
2021/11/02 00:20:15;;;;;;;1.93;1.70;;;;;;;8.04;100.00;95389.63;5096439;28;20191;-64
2021/11/02 00:22:42;;;;;;;5.43;2.33;;;;;;;7.88;100.00;95399.91;5110226;28;20198;-65
2021/11/02 00:25:08;;;;;;;2.17;1.80;;;;;;;8.08;100.00;95386.28;5112260;28;20196;-65
2021/11/02 00:27:39;;;;;;;2.97;1.90;;;;;;;8.16;100.00;95388.47;5112258;28;20226;-64
2021/11/02 00:30:12;;;;;;;2.47;2.00;;;;;;;8.12;100.00;95386.59;5093211;28;20517;-65
2021/11/02 00:32:38;;;;;;;2.40;2.20;;;;;;;8.10;100.00;95381.63;5094234;28;20658;-66
2021/11/02 00:35:05;;;;;;;2.83;1.80;;;;;;;8.18;100.00;95391.63;5112981;28;20187;-65
2021/11/02 00:37:31;;;;;;;2.40;2.00;;;;;;;8.06;100.00;95390.19;5094620;28;20180;-65
2021/11/02 00:39:56;;;;;;;2.00;1.90;;;;;;;8.02;100.00;95389.09;5112869;28;20241;-66
2021/11/02 00:42:31;;;;;;;3.50;2.20;;;;;;;8.09;100.00;95392.28;5094915;28;20204;-66
2021/11/02 00:44:58;;;;;;;2.30;2.10;;;;;;;8.03;100.00;95390.66;5092080;28;20640;-65
2021/11/02 00:47:26;;;;;;;2.33;2.00;;;;;;;8.16;100.00;95385.84;5091396;28;20179;-65
2021/11/02 00:49:52;;;;;;;5.17;2.20;;;;;;;8.10;100.00;95383.44;5092461;28;20215;-66
2021/11/02 00:52:17;;;;;;;2.20;1.80;;;;;;;8.19;100.00;95381.97;5094102;28;20223;-65
2021/11/02 00:54:43;;;;;;;1.90;1.80;;;;;;;8.03;100.00;95390.66;5112039;28;20184;-65
2021/11/02 00:57:08;;;;;;;1.90;1.80;;;;;;;8.18;100.00;95389.03;5112405;28;20198;-65
2021/11/02 00:59:34;;;;;;;4.57;2.10;;;;;;;8.16;100.00;95393.69;5111882;28;20244;-65
2021/11/02 01:01:59;;;;;;;2.27;1.90;;;;;;;8.12;99.95;95387.38;5094920;28;20241;-65
2021/11/02 01:04:25;;;;;;;1.40;1.30;;;;;;;8.04;100.00;95390.41;5106421;28;20232;-65
2021/11/02 01:06:50;;;;;;;3.60;1.40;;;;;;;8.11;100.00;95387.63;5090977;28;20670;-65
2021/11/02 01:09:15;;;;;;;3.50;1.30;;;;;;;8.20;98.98;95389.53;5093167;28;20185;-66
2021/11/02 01:11:41;;;;;;;2.73;1.40;;;;;;;8.26;98.08;95380.72;5092206;28;20196;-65
2021/11/02 01:14:07;;;;;;;1.40;1.30;;;;;;;8.29;97.42;95382.88;5111550;28;20180;-65
2021/11/02 01:16:34;;;;;;;1.27;1.17;;;;;;;8.36;97.70;95384.53;5094266;28;20175;-65
2021/11/02 01:18:59;;;;;;;4.40;1.50;;;;;;;8.21;98.41;95380.69;5112629;28;20599;-65
2021/11/02 01:21:25;;;;;;;2.70;1.23;;;;;;;8.34;97.11;95382.94;5097556;28;20271;-66
2021/11/02 01:23:50;;;;;;;2.43;1.60;;;;;;;8.27;98.07;95373.69;5096051;28;20565;-66
2021/11/02 01:26:17;;;;;;;1.73;1.30;;;;;;;8.29;97.63;95371.63;5095621;28;20273;-65
2021/11/02 01:28:42;;;;;;;2.97;1.60;;;;;;;8.19;97.88;95369.69;5105165;28;20180;-65
2021/11/02 01:31:08;;;;;;;1.80;1.47;;;;;;;8.09;98.51;95369.59;5115708;28;20171;-65
2021/11/02 01:33:33;;;;;;;2.07;1.80;;;;;;;8.25;97.94;95375.75;5105763;28;20545;-65
2021/11/02 01:35:59;;;;;;;1.30;1.13;;;;;;;8.02;98.83;95371.63;5095494;28;20196;-65
2021/11/02 01:38:25;;;;;;;2.00;1.37;;;;;;;8.10;98.29;95376.41;5095780;28;20208;-65
2021/11/02 01:40:52;;;;;;;1.40;1.30;;;;;;;8.04;98.94;95373.97;5112297;28;20176;-65
2021/11/02 01:43:18;;;;;;;1.37;1.27;;;;;;;8.07;98.28;95370.88;5101971;28;20191;-65
2021/11/02 01:45:44;;;;;;;1.30;1.20;;;;;;;7.98;98.42;95367.13;5115577;28;20200;-65
2021/11/02 01:48:17;;;;;;;1.53;1.40;;;;;;;8.06;97.86;95370.09;5098501;28;20613;-66
2021/11/02 01:50:43;;;;;;;1.33;1.33;;;;;;;8.18;96.84;95373.34;5095083;28;20175;-65
2021/11/02 01:53:09;;;;;;;3.03;1.27;;;;;;;8.17;97.06;95371.78;5102307;28;20627;-65
2021/11/02 01:55:35;;;;;;;1.40;1.30;;;;;;;8.05;98.24;95368.50;5112392;28;20266;-65
2021/11/02 01:58:01;;;;;;;3.37;1.30;;;;;;;7.89;99.13;95372.78;5111854;28;20211;-65
2021/11/02 02:00:28;;;;;;;1.77;1.30;;;;;;;7.85;100.00;95369.09;5097826;28;20205;-65
2021/11/02 02:03:02;;;;;;;1.77;1.20;;;;;;;8.17;98.47;95373.59;5094830;28;20231;-65
2021/11/02 02:05:47;;;;;;;3.57;1.73;;;;;;;8.23;96.89;95376.03;5095003;28;20227;-65
2021/11/02 02:08:27;;;;;;;1.80;1.63;;;;;;;8.10;98.29;95378.22;5095040;28;20185;-65
2021/11/02 02:11:14;;;;;;;2.40;1.40;;;;;;;8.23;97.26;95376.03;5093590;28;20621;-65
2021/11/02 02:13:52;;;;;;;2.83;1.50;;;;;;;8.08;97.72;95368.00;5095065;28;20187;-66
2021/11/02 02:16:41;;;;;;;1.43;1.20;;;;;;;8.17;97.95;95369.16;5094930;28;20179;-65
2021/11/02 02:19:21;;;;;;;2.43;1.33;;;;;;;8.13;99.50;95359.47;5094591;28;20723;-65
2021/11/02 02:22:14;;;;;;;1.23;1.23;;;;;;;8.04;100.00;95356.50;5096343;28;20176;-65
2021/11/02 02:24:40;;;;;;;1.63;1.10;;;;;;;8.11;100.00;95353.69;5114522;28;20200;-65
2021/11/02 02:27:24;;;;;;;2.33;1.10;;;;;;;8.08;100.00;95357.56;5114632;28;20594;-65
2021/11/02 02:29:51;;;;;;;1.40;1.30;;;;;;;7.96;100.00;95351.72;5112326;28;20175;-65
2021/11/02 02:32:23;;;;;;;2.57;1.13;;;;;;;7.95;100.00;95350.16;5094791;28;20180;-66
2021/11/02 02:34:52;;;;;;;1.77;1.20;;;;;;;7.81;100.00;95352.34;5083926;28;20276;-65
2021/11/02 02:37:21;;;;;;;4.07;1.13;;;;;;;7.99;100.00;95350.44;5093183;28;20280;-65
2021/11/02 02:39:46;;;;;;;2.43;1.70;;;;;;;7.95;100.00;95357.97;5094846;28;20184;-64
2021/11/02 02:42:13;;;;;;;1.30;1.20;;;;;;;7.88;100.00;95358.16;5112636;28;20682;-64
2021/11/02 02:44:41;;;;;;;1.90;1.10;;;;;;;7.98;100.00;95351.47;5114323;28;20206;-64
2021/11/02 02:47:07;;;;;;;1.43;1.23;;;;;;;7.90;100.00;95352.72;5114024;28;20184;-65
2021/11/02 02:49:33;;;;;;;1.57;1.47;;;;;;;7.85;100.00;95353.44;5112488;28;20192;-66
2021/11/02 02:52:00;;;;;;;1.00;1.00;;;;;;;8.01;100.00;95354.38;5108885;28;20192;-64
2021/11/02 02:54:26;;;;;;;1.10;1.10;;;;;;;7.93;100.00;95347.00;5094566;28;20183;-64
2021/11/02 02:56:52;;;;;;;1.30;1.20;;;;;;;7.83;100.00;95350.28;5094015;28;20652;-66
2021/11/02 02:59:21;;;;;;;4.47;1.63;;;;;;;7.63;100.00;95346.66;5095230;28;20184;-64
2021/11/02 03:01:48;;;;;;;1.70;1.47;;;;;;;7.76;100.00;95349.69;5105413;28;20645;-65
2021/11/02 03:04:17;;;;;;;1.40;1.30;;;;;;;7.71;100.00;95339.19;5113301;28;20230;-65
2021/11/02 03:06:46;;;;;;;1.03;0.97;;;;;;;7.76;100.00;95341.84;5113662;28;20172;-64
2021/11/02 03:09:12;;;;;;;1.40;1.20;;;;;;;7.65;100.00;95331.53;5095665;28;20558;-64
2021/11/02 03:11:39;;;;;;;1.70;1.17;;;;;;;7.62;100.00;95325.00;5103202;28;20181;-64
2021/11/02 03:14:09;;;;;;;1.90;1.50;;;;;;;7.71;100.00;95328.75;5093772;28;20184;-64
2021/11/02 03:16:54;;;;;;;2.63;1.20;;;;;;;7.88;100.00;95326.06;5093685;28;20294;-64
2021/11/02 03:44:43;;;;;;;1.30;1.30;;;;;;;7.50;100.00;95340.00;5092958;28;20241;-64
2021/11/02 03:55:32;;;;;;;2.37;1.10;;;;;;;7.19;100.00;95348.47;5092734;28;20313;-65
2021/11/02 03:58:04;;;;;;;2.10;1.30;;;;;;;7.20;100.00;95350.00;5092835;28;20165;-65
2021/11/02 05:49:47;;;;;;;1.60;1.50;;;;;;;6.19;100.00;95338.84;5111851;28;20185;-65
2021/11/02 05:59:41;;;;;;;5.00;1.43;;;;;;;6.08;100.00;95337.88;5095335;28;20214;-65
2021/11/02 06:29:56;;;;;;;2.63;1.47;;;;;;;5.99;100.00;95349.69;5114317;28;20209;-66
2021/11/02 06:32:29;;;;;;;2.10;1.77;;;;;;;6.08;100.00;95339.69;5114285;28;20184;-65
2021/11/02 06:35:17;;;;;;;2.50;1.83;;;;;;;6.24;100.00;95351.97;5095079;28;20188;-65
2021/11/02 06:38:00;;;;;;;1.67;1.57;;;;;;;6.27;100.00;95348.88;5114447;28;20215;-65
2021/11/02 06:43:15;;;;;;;2.37;1.87;;;;;;;6.43;100.00;95345.50;5111947;28;20271;-65
2021/11/02 06:51:13;;;;;;;2.00;1.40;;;;;;;6.76;100.00;95349.13;5113766;28;20192;-66
2021/11/02 07:18:32;;;;;;;3.13;1.50;;;;;;;7.90;95.07;95363.94;5092787;28;20184;-65
2021/11/02 07:24:11;;;;;;;3.57;1.40;;;;;;;7.96;94.60;95372.59;5078248;28;20192;-65
2021/11/02 08:47:33;;;;;;;1.30;1.30;;;;;;;10.11;83.28;95372.78;5092693;28;20601;-64
2021/11/02 08:50:00;;;;;;;2.37;1.50;;;;;;;10.35;82.47;95378.38;5109014;28;20176;-64
2021/11/02 08:52:26;;;;;;;2.93;2.07;;;;;;;10.28;81.94;95370.75;5105410;28;20187;-64
2021/11/02 08:54:54;;;;;;;2.03;1.60;;;;;;;10.15;83.04;95370.41;5092151;28;20271;-63
2021/11/02 08:57:21;;;;;;;1.43;1.40;;;;;;;10.08;84.05;95381.16;5096692;28;20199;-64
2021/11/02 08:59:47;;;;;;;1.97;1.77;;;;;;;10.05;84.63;95379.03;5102927;28;20240;-64
2021/11/02 09:02:22;;;;;;;2.60;1.53;;;;;;;10.08;85.33;95378.53;5089729;28;20188;-64
2021/11/02 09:04:52;;;;;;;1.17;1.07;;;;;;;10.04;84.20;95377.47;5091814;28;20227;-63
2021/11/02 09:07:23;;;;;;;2.17;1.37;;;;;;;10.21;83.74;95379.91;5091960;28;20618;-64
2021/11/02 09:09:50;;;;;;;2.83;1.73;;;;;;;10.18;85.01;95378.59;5095965;28;20614;-64
2021/11/02 09:12:17;;;;;;;2.17;1.67;;;;;;;10.05;86.36;95373.03;5108691;28;20268;-64
2021/11/02 09:14:45;;;;;;;1.73;1.63;;;;;;;9.76;88.81;95378.66;5096576;28;20220;-65
2021/11/02 09:17:13;;;;;;;2.00;1.80;;;;;;;9.81;89.72;95380.50;5101401;28;20184;-63
2021/11/02 09:19:38;;;;;;;2.97;1.30;;;;;;;9.65;91.81;95376.25;5111849;28;20182;-65
2021/11/02 09:22:06;;;;;;;2.83;1.70;;;;;;;9.79;90.02;95383.41;5109678;28;20184;-66
2021/11/02 09:24:34;;;;;;;2.97;1.60;;;;;;;9.95;88.88;95382.41;5111258;28;20179;-65
2021/11/02 09:27:02;;;;;;;1.87;1.37;;;;;;;9.85;90.53;95379.78;5111644;28;20184;-66
2021/11/02 09:29:27;;;;;;;4.53;1.63;;;;;;;9.79;89.76;95378.19;5100179;28;20299;-65
2021/11/02 09:31:57;;;;;;;2.53;1.40;;;;;;;9.63;90.83;95384.38;5093121;28;20548;-66
2021/11/02 09:34:23;;;;;;;1.10;1.10;;;;;;;9.42;91.57;95388.72;5099247;28;20193;-66
2021/11/02 09:37:10;;;;;;;1.63;1.40;;;;;;;9.37;92.36;95386.06;5092583;28;20525;-65
2021/11/02 09:39:41;;;;;;;1.30;1.20;;;;;;;9.31;92.71;95391.50;5104973;28;20620;-66
2021/11/02 09:42:24;;;;;;;1.43;1.20;;;;;;;9.20;93.45;95388.03;5094359;28;20161;-66
2021/11/02 09:45:03;;;;;;;1.43;1.20;;;;;;;9.13;94.02;95387.50;5094551;28;20283;-65
2021/11/02 09:47:43;;;;;;;1.33;1.23;;;;;;;9.04;94.27;95386.38;5094510;28;20207;-65
2021/11/02 09:50:30;;;;;;;3.33;1.40;;;;;;;9.07;94.14;95388.50;5111736;28;20508;-66
2021/11/02 09:53:13;;;;;;;1.20;1.10;;;;;;;9.33;93.70;95384.22;5095357;28;20594;-66
2021/11/02 09:56:02;;;;;;;1.37;1.27;;;;;;;9.40;93.45;95376.94;5110304;28;20172;-66
2021/11/02 09:59:02;;;;;;;4.20;1.40;;;;;;;9.52;93.03;95377.53;5098361;28;20185;-66
2021/11/02 10:01:36;;;;;;;1.30;1.20;;;;;;;9.60;92.67;95384.88;5097710;28;20258;-66
2021/11/02 10:04:26;;;;;;;1.20;1.10;;;;;;;9.54;93.22;95384.06;5100284;28;20676;-65
2021/11/02 10:07:15;;;;;;;2.30;1.30;;;;;;;9.64;93.17;95380.72;5071327;28;20230;-66
2021/11/02 10:10:17;;;;;;;1.07;1.00;;;;;;;9.66;92.30;95383.88;5096799;28;20205;-65
2021/11/02 10:12:57;;;;;;;2.07;1.30;;;;;;;9.78;90.61;95375.81;5031009;28;20236;-65
2021/11/02 10:15:53;;;;;;;1.30;1.20;;;;;;;9.91;91.06;95376.13;5087667;28;20302;-65
2021/11/02 10:18:32;;;;;;;1.03;0.93;;;;;;;9.66;92.15;95383.88;5093916;28;20173;-65
2021/11/02 10:21:22;;;;;;;1.70;1.10;;;;;;;9.53;91.97;95379.88;5095237;28;20172;-65
2021/11/02 10:24:03;;;;;;;3.93;1.30;;;;;;;9.37;93.30;95374.81;5098845;28;20180;-65
2021/11/02 10:26:43;;;;;;;3.03;1.20;;;;;;;9.33;94.68;95376.38;5095455;28;20204;-65
2021/11/02 10:29:27;;;;;;;1.03;0.97;;;;;;;9.24;94.70;95376.06;5112467;28;20179;-65
2021/11/02 10:31:58;;;;;;;1.17;1.10;;;;;;;9.45;93.14;95374.34;5092222;28;20586;-66
2021/11/02 10:34:54;;;;;;;4.17;1.40;;;;;;;9.40;94.13;95369.09;5099720;28;20199;-66
2021/11/02 10:37:43;;;;;;;1.30;1.20;;;;;;;9.43;94.42;95373.81;5083874;28;20243;-65
2021/11/02 10:40:14;;;;;;;1.53;1.23;;;;;;;9.35;94.77;95372.47;5109914;28;20271;-65
2021/11/02 10:42:57;;;;;;;1.87;1.20;;;;;;;9.50;94.32;95363.91;5082481;28;20161;-66
2021/11/02 10:45:27;;;;;;;2.60;1.20;;;;;;;9.42;95.52;95367.00;5082846;28;20231;-66
2021/11/02 10:48:10;;;;;;;6.00;1.40;;;;;;;9.51;95.56;95371.50;5109695;28;20301;-65
2021/11/02 10:50:38;;;;;;;1.60;1.47;;;;;;;9.49;96.22;95364.94;5078638;28;20180;-66
2021/11/02 10:53:09;;;;;;;1.10;1.10;;;;;;;9.44;95.20;95354.47;5105330;28;20593;-66
2021/11/02 10:55:49;;;;;;;1.83;1.40;;;;;;;9.41;95.54;95366.25;5093170;28;20192;-67
2021/11/02 10:58:45;;;;;;;5.27;1.17;;;;;;;9.47;95.13;95367.06;5094914;28;20215;-66
2021/11/02 11:01:12;;;;;;;2.40;1.30;;;;;;;9.49;95.48;95359.72;5092887;28;20210;-66
2021/11/02 11:03:40;;;;;;;1.40;1.30;;;;;;;9.42;95.50;95359.16;5096140;28;20677;-66
2021/11/02 11:06:08;;;;;;;1.40;1.30;;;;;;;9.60;95.64;95356.91;5109168;28;20206;-66
2021/11/02 11:08:36;;;;;;;1.10;1.10;;;;;;;9.47;95.86;95356.59;5094503;28;20187;-67
2021/11/02 11:11:04;;;;;;;1.43;1.23;;;;;;;9.82;93.42;95361.94;5097019;28;20169;-66
2021/11/02 11:13:31;;;;;;;1.53;1.30;;;;;;;9.66;95.00;95356.91;5092639;28;20316;-66
2021/11/02 11:16:10;;;;;;;1.40;1.20;;;;;;;9.62;94.14;95364.50;5093296;28;20272;-65
2021/11/02 11:18:47;;;;;;;1.90;1.03;;;;;;;9.74;95.23;95356.44;5100213;28;20203;-66
2021/11/02 11:21:14;;;;;;;1.40;1.00;;;;;;;9.92;93.18;95359.38;5113103;28;20193;-65
2021/11/02 11:23:43;;;;;;;1.13;1.10;;;;;;;9.88;93.82;95360.13;5107789;28;20278;-64
2021/11/02 11:26:09;;;;;;;2.23;1.27;;;;;;;10.01;92.81;95362.28;5112778;28;20220;-64
2021/11/02 11:28:39;;;;;;;1.30;1.20;;;;;;;10.17;91.79;95363.13;5091765;28;20194;-65
2021/11/02 11:31:06;;;;;;;1.50;1.40;;;;;;;10.25;91.29;95360.03;5093003;28;20196;-65
2021/11/02 11:33:32;;;;;;;1.97;1.20;;;;;;;10.58;89.96;95359.53;5093701;28;20188;-65
2021/11/02 11:36:04;;;;;;;3.87;1.33;;;;;;;10.33;90.11;95355.06;5112721;28;20176;-65
2021/11/02 11:38:40;;;;;;;1.90;1.10;;;;;;;10.42;88.92;95356.09;5106658;28;20802;-65
2021/11/02 11:41:09;;;;;;;1.73;1.10;;;;;;;10.65;89.20;95351.41;5093679;28;20176;-66
2021/11/02 11:43:35;;;;;;;0.90;0.90;;;;;;;10.84;88.13;95357.72;5092701;28;20195;-65
2021/11/02 11:46:03;;;;;;;1.00;0.90;;;;;;;10.91;87.45;95350.38;5112670;28;20192;-65
2021/11/02 11:48:29;;;;;;;1.70;1.10;;;;;;;11.16;84.83;95344.28;5111065;28;20194;-64
2021/11/02 11:50:58;;;;;;;0.97;0.87;;;;;;;11.29;84.05;95340.34;5095610;28;20181;-65
2021/11/02 11:53:26;;;;;;;2.23;1.10;;;;;;;11.58;83.40;95357.06;5110959;28;20225;-65
2021/11/02 11:56:05;;;;;;;1.27;1.13;;;;;;;11.25;84.58;95346.13;5090061;28;20683;-66
2021/11/02 11:58:31;;;;;;;1.53;1.07;;;;;;;11.63;82.37;95336.03;5109037;28;20263;-65
2021/11/02 12:01:24;;;;;;;1.03;1.00;;;;;;;11.52;82.98;95343.16;5104319;28;20206;-66
2021/11/02 12:04:10;;;;;;;0.80;0.73;;;;;;;11.62;82.76;95331.84;5107732;28;22154;-65
2021/11/02 12:07:01;;;;;;;1.07;1.07;;;;;;;11.94;81.16;95328.84;5097134;28;20208;-65
2021/11/02 12:09:26;;;;;;;1.17;1.10;;;;;;;11.97;81.98;95338.81;5093946;28;20579;-63
2021/11/02 12:12:04;;;;;;;0.97;0.97;;;;;;;11.60;81.38;95331.31;5091123;28;20195;-64
2021/11/02 12:14:33;;;;;;;0.80;0.80;;;;;;;11.49;81.02;95329.78;5110824;28;20206;-64
2021/11/02 12:17:01;;;;;;;0.70;0.70;;;;;;;11.35;81.69;95332.19;5110558;28;20176;-64
2021/11/02 12:19:34;;;;;;;0.70;0.70;;;;;;;11.14;81.17;95322.81;5109900;28;20204;-64
2021/11/02 12:22:03;;;;;;;1.80;0.80;;;;;;;11.42;80.27;95324.06;5100941;28;20204;-64
2021/11/02 12:24:34;;;;;;;1.20;0.60;;;;;;;11.41;82.32;95325.88;5095100;28;20180;-65
2021/11/02 12:27:10;;;;;;;2.23;0.83;;;;;;;11.38;80.67;95315.13;5102652;28;20199;-64
2021/11/02 12:29:37;;;;;;;0.50;0.50;;;;;;;11.30;80.66;95326.97;5084290;28;20176;-64
2021/11/02 12:32:11;;;;;;;0.70;0.70;;;;;;;11.25;79.66;95321.75;5100195;28;20240;-64
2021/11/02 12:34:47;;;;;;;0.60;0.60;;;;;;;11.01;80.42;95320.72;5111914;28;20176;-64
2021/11/02 12:37:14;;;;;;;1.40;0.63;;;;;;;11.18;79.25;95326.47;5093023;28;20224;-64
2021/11/02 12:39:42;;;;;;;0.60;0.60;;;;;;;11.04;78.58;95334.09;5103680;28;20214;-64
2021/11/02 12:42:08;;;;;;;0.50;0.50;;;;;;;10.81;79.39;95332.78;5099967;28;20297;-64
2021/11/02 12:44:44;;;;;;;0.50;0.50;;;;;;;10.76;80.25;95339.88;5099965;28;20632;-66
2021/11/02 12:47:15;;;;;;;0.50;0.50;;;;;;;10.95;78.46;95334.88;5099443;28;20187;-64
2021/11/02 12:49:48;;;;;;;0.77;0.77;;;;;;;10.84;77.42;95344.59;5110755;28;20211;-64
2021/11/02 12:52:15;;;;;;;0.50;0.50;;;;;;;10.90;77.57;95345.38;5107510;28;20535;-65
2021/11/02 12:54:42;;;;;;;1.40;0.50;;;;;;;11.17;77.10;95343.25;5105760;28;20275;-65
2021/11/02 12:57:12;;;;;;;0.40;0.40;;;;;;;11.30;76.14;95345.31;5092456;28;20176;-65
2021/11/02 12:59:49;;;;;;;0.57;0.57;;;;;;;11.25;75.91;95340.88;5097351;28;20270;-65
2021/11/02 13:02:35;;;;;;;0.50;0.50;;;;;;;11.38;76.46;95339.53;5104667;28;20632;-65
2021/11/02 13:05:23;;;;;;;0.53;0.53;;;;;;;11.50;74.29;95344.47;5109335;28;20212;-65
2021/11/02 13:08:03;;;;;;;0.30;0.30;;;;;;;11.60;72.45;95344.44;5099171;28;20193;-65
2021/11/02 13:10:31;;;;;;;0.50;0.50;;;;;;;11.86;74.18;95330.22;5098563;28;20497;-65
2021/11/02 13:13:13;;;;;;;0.47;0.47;;;;;;;12.17;71.69;95335.28;5111901;28;20207;-65
2021/11/02 13:15:56;;;;;;;0.40;0.40;;;;;;;12.09;71.50;95341.91;5113400;28;20599;-65
2021/11/02 13:18:37;;;;;;;0.40;0.40;;;;;;;12.04;72.63;95342.69;5099841;28;20192;-65
2021/11/02 13:21:41;;;;;;;0.40;0.40;;;;;;;11.76;73.96;95342.59;5094320;28;20192;-64
2021/11/02 13:24:18;;;;;;;0.40;0.40;;;;;;;11.66;75.54;95341.53;4996090;28;20214;-64
2021/11/02 13:26:46;;;;;;;0.50;0.50;;;;;;;11.26;76.20;95342.44;4997023;28;20198;-63
2021/11/02 13:29:17;;;;;;;0.50;0.50;;;;;;;10.87;77.07;95336.19;5020497;28;20207;-63
2021/11/02 13:31:44;;;;;;;0.40;0.40;;;;;;;10.67;78.00;95341.47;5029422;28;20198;-64
2021/11/02 13:34:33;;;;;;;0.43;0.43;;;;;;;10.61;79.88;95350.34;5028131;28;20227;-64
2021/11/02 13:37:04;;;;;;;0.40;0.40;;;;;;;10.43;82.54;95349.03;5022723;28;20302;-63
2021/11/02 13:39:30;;;;;;;0.70;0.70;;;;;;;10.47;83.73;95349.31;5032438;28;20244;-63
2021/11/02 13:41:56;;;;;;;0.67;0.63;;;;;;;10.29;82.16;95347.97;4997526;28;20203;-64
2021/11/02 13:44:24;;;;;;;0.50;0.50;;;;;;;9.99;83.23;95346.84;5027563;28;20190;-64
2021/11/02 13:46:52;;;;;;;0.60;0.60;;;;;;;9.92;84.16;95346.28;5020039;28;20210;-64
2021/11/02 13:49:19;;;;;;;0.50;0.50;;;;;;;9.64;81.79;95338.84;5030121;28;20206;-64
2021/11/02 13:51:46;;;;;;;0.50;0.50;;;;;;;9.58;82.58;95339.91;5027996;28;20311;-67
2021/11/02 13:54:11;;;;;;;0.70;0.70;;;;;;;9.69;82.97;95338.91;5034145;28;20238;-64
2021/11/02 13:56:40;;;;;;;0.50;0.50;;;;;;;9.67;82.29;95334.94;5102453;28;20188;-64
2021/11/02 13:59:07;;;;;;;0.50;0.50;;;;;;;9.73;82.77;95333.94;5115074;28;20197;-64
2021/11/02 14:01:47;;;;;;;1.27;0.60;;;;;;;9.79;81.38;95332.91;5093198;28;20185;-64
2021/11/02 14:04:23;;;;;;;2.20;0.50;;;;;;;9.73;80.58;95331.31;5094372;28;20293;-65
2021/11/02 14:06:52;;;;;;;0.60;0.60;;;;;;;9.64;80.90;95338.09;5103785;28;20192;-67
2021/11/02 14:09:26;;;;;;;0.50;0.50;;;;;;;9.66;81.64;95342.00;5110138;28;20211;-65
2021/11/02 14:11:52;;;;;;;0.50;0.50;;;;;;;9.76;81.51;95347.28;5110153;28;20200;-65
2021/11/02 14:14:34;;;;;;;0.50;0.50;;;;;;;10.07;78.88;95344.75;5112977;28;20188;-64
2021/11/02 14:17:21;;;;;;;0.70;0.70;;;;;;;10.39;79.24;95361.09;5110707;28;20172;-66
2021/11/02 14:19:51;;;;;;;0.40;0.40;;;;;;;10.51;76.03;95361.63;5084687;28;20181;-65
2021/11/02 14:22:41;;;;;;;0.47;0.47;;;;;;;10.41;77.11;95359.78;5084930;28;20184;-66
2021/11/02 14:25:30;;;;;;;0.50;0.50;;;;;;;10.66;75.60;95363.47;5110990;28;20211;-65
2021/11/02 14:27:56;;;;;;;0.50;0.50;;;;;;;10.50;76.14;95373.16;5099264;28;20251;-65
2021/11/02 14:30:31;;;;;;;0.50;0.50;;;;;;;10.19;75.98;95368.91;5098479;28;20279;-65
2021/11/02 14:32:57;;;;;;;0.60;0.60;;;;;;;10.30;76.54;95375.75;5091735;28;20278;-65
2021/11/02 14:35:38;;;;;;;0.60;0.60;;;;;;;10.06;77.57;95375.38;5093903;28;20605;-65
2021/11/02 14:38:17;;;;;;;0.60;0.60;;;;;;;9.93;79.26;95381.88;5114095;28;20408;-65
2021/11/02 14:40:51;;;;;;;0.70;0.70;;;;;;;10.00;79.26;95379.81;5106091;28;20172;-65
2021/11/02 14:43:17;;;;;;;0.77;0.73;;;;;;;10.19;78.87;95374.94;5091987;28;20195;-65
2021/11/02 14:46:06;;;;;;;0.60;0.60;;;;;;;10.19;79.23;95382.78;5099757;28;20206;-65
2021/11/02 14:48:32;;;;;;;0.87;0.77;;;;;;;9.99;80.08;95380.06;5113599;28;20184;-65
2021/11/02 14:51:25;;;;;;;1.60;0.70;;;;;;;10.11;80.28;95382.47;5113780;28;20637;-65
2021/11/02 14:53:52;;;;;;;0.73;0.50;;;;;;;10.07;79.93;95382.19;5081363;28;20279;-65
2021/11/02 14:56:18;;;;;;;0.73;0.57;;;;;;;9.97;80.39;95376.94;5102622;28;20262;-65
2021/11/02 14:58:51;;;;;;;0.60;0.60;;;;;;;9.96;81.29;95384.00;5090950;28;20279;-65
2021/11/02 15:01:39;;;;;;;0.70;0.60;;;;;;;10.06;80.18;95382.44;5100217;28;20181;-65
2021/11/02 15:04:18;;;;;;;0.70;0.70;;;;;;;10.14;80.21;95379.34;5099714;28;20219;-64
2021/11/02 15:06:57;;;;;;;0.93;0.70;;;;;;;9.99;81.92;95378.25;5113366;28;20204;-64
2021/11/02 15:09:27;;;;;;;0.60;0.60;;;;;;;9.83;81.87;95378.44;5103320;28;20196;-64
2021/11/02 15:11:53;;;;;;;0.70;0.70;;;;;;;9.87;80.88;95376.88;5095240;28;20241;-64
2021/11/02 15:14:20;;;;;;;0.60;0.60;;;;;;;9.86;80.09;95383.94;5113117;28;20180;-64
2021/11/02 15:16:48;;;;;;;0.63;0.63;;;;;;;9.64;79.97;95379.94;5102527;28;20177;-64
2021/11/02 15:19:15;;;;;;;0.70;0.70;;;;;;;9.58;79.96;95385.13;5111477;28;20680;-65
2021/11/02 15:21:59;;;;;;;0.73;0.50;;;;;;;9.44;80.25;95372.78;5105983;28;20199;-65
2021/11/02 15:24:26;;;;;;;0.60;0.60;;;;;;;9.42;80.93;95380.84;5091068;28;20626;-65
2021/11/02 15:27:00;;;;;;;0.60;0.60;;;;;;;9.14;81.67;95382.00;5080223;28;20199;-66
2021/11/02 15:29:28;;;;;;;0.60;0.60;;;;;;;9.01;83.39;95389.50;5112573;28;20180;-65
2021/11/02 15:32:06;;;;;;;0.70;0.70;;;;;;;8.99;83.96;95391.56;5096847;28;20203;-64
2021/11/02 15:34:41;;;;;;;0.60;0.60;;;;;;;8.88;84.15;95398.53;5084584;28;20659;-65
2021/11/02 15:37:09;;;;;;;0.60;0.60;;;;;;;9.03;83.01;95400.47;5109911;28;20675;-65
2021/11/02 15:39:36;;;;;;;0.60;0.60;;;;;;;9.07;82.59;95397.13;5093162;28;20219;-65
2021/11/02 15:42:03;;;;;;;0.50;0.50;;;;;;;8.95;84.17;95396.53;5093741;28;20176;-66
2021/11/02 15:44:29;;;;;;;0.60;0.60;;;;;;;8.81;85.13;95395.34;5089800;28;20189;-65
2021/11/02 15:46:54;;;;;;;0.60;0.60;;;;;;;8.59;86.68;95390.22;5092688;28;20702;-66
2021/11/02 15:49:22;;;;;;;0.47;0.47;;;;;;;8.60;87.06;95389.16;5102711;28;20196;-65
2021/11/02 15:52:07;;;;;;;0.60;0.60;;;;;;;8.49;88.21;95395.34;5106538;28;20555;-65
2021/11/02 15:54:33;;;;;;;0.57;0.57;;;;;;;8.37;89.03;95389.47;5104724;28;20176;-66
2021/11/02 15:57:11;;;;;;;0.53;0.53;;;;;;;8.28;89.72;95383.91;5112210;28;20179;-65
2021/11/02 15:59:36;;;;;;;0.50;0.50;;;;;;;8.30;87.85;95389.66;5092555;28;20263;-65
2021/11/02 16:02:03;;;;;;;0.60;0.60;;;;;;;8.30;88.74;95394.88;5109018;28;20702;-66
2021/11/02 16:04:29;;;;;;;0.60;0.60;;;;;;;8.28;88.11;95380.50;5106752;28;20219;-65
2021/11/02 16:07:00;;;;;;;0.60;0.60;;;;;;;8.23;88.40;95390.88;5094925;28;20680;-66
2021/11/02 16:09:43;;;;;;;0.80;0.80;;;;;;;8.26;88.99;95383.34;5092498;28;20264;-66
2021/11/02 16:12:27;;;;;;;0.60;0.60;;;;;;;8.21;90.03;95391.13;5092079;28;20242;-66
2021/11/02 16:15:04;;;;;;;0.83;0.80;;;;;;;8.32;90.13;95399.88;5110695;28;20172;-66
2021/11/02 16:17:37;;;;;;;0.73;0.73;;;;;;;8.14;91.04;95405.38;5076182;28;20191;-66
2021/11/02 16:20:04;;;;;;;0.80;0.80;;;;;;;8.05;92.55;95410.25;5090962;28;20188;-66
2021/11/02 16:22:29;;;;;;;0.60;0.60;;;;;;;8.18;92.25;95414.31;5092194;28;20193;-66
2021/11/02 16:25:07;;;;;;;0.80;0.80;;;;;;;8.02;93.80;95415.19;5108599;28;20697;-69
2021/11/02 16:27:33;;;;;;;0.80;0.80;;;;;;;7.94;94.27;95419.78;5099821;28;20592;-68
2021/11/02 16:29:58;;;;;;;0.60;0.60;;;;;;;7.92;94.73;95421.06;5096847;28;20220;-68
2021/11/02 16:32:26;;;;;;;0.87;0.80;;;;;;;7.98;94.84;95430.53;5111964;28;20269;-68
2021/11/02 16:34:53;;;;;;;0.93;0.93;;;;;;;7.98;94.25;95421.91;5111260;28;20546;-68
2021/11/02 16:37:30;;;;;;;0.80;0.80;;;;;;;7.92;95.27;95427.06;5090197;28;20203;-67
2021/11/02 16:40:27;;;;;;;0.90;0.90;;;;;;;7.81;96.50;95432.41;5095087;28;20675;-68
2021/11/02 16:42:57;;;;;;;2.10;0.80;;;;;;;8.05;94.88;95420.69;5111767;28;20167;-68
2021/11/02 16:45:24;;;;;;;0.97;0.83;;;;;;;7.94;96.18;95424.22;5093714;28;20550;-66
2021/11/02 16:48:02;;;;;;;1.00;1.00;;;;;;;7.94;96.60;95421.63;5090553;28;20225;-67
2021/11/02 16:50:31;;;;;;;0.97;0.97;;;;;;;7.93;96.93;95439.09;5101524;28;20659;-67
2021/11/02 16:53:14;;;;;;;0.87;0.87;;;;;;;7.96;97.73;95432.59;5109343;28;20200;-67
2021/11/02 16:55:41;;;;;;;2.00;0.93;;;;;;;8.07;97.41;95433.50;5097189;28;20298;-66